sensor_id;sensor_type;location;lat;lon;timestamp;temperature;humidity
35692;DHT22;26978;44.830;-0.674;2022-09-19T00:01:07;13.50;79.70
35692;DHT22;26978;44.830;-0.674;2022-09-19T00:03:32;13.50;80.10
35692;DHT22;26978;44.830;-0.674;2022-09-19T00:05:58;13.40;79.80
35692;DHT22;26978;44.830;-0.674;2022-09-19T00:08:23;13.30;80.50
35692;DHT22;26978;44.830;-0.674;2022-09-19T00:10:50;13.40;81.10
35692;DHT22;26978;44.830;-0.674;2022-09-19T00:13:16;13.40;80.90
35692;DHT22;26978;44.830;-0.674;2022-09-19T00:15:46;13.30;81.30
35692;DHT22;26978;44.830;-0.674;2022-09-19T00:18:11;13.30;81.50
35692;DHT22;26978;44.830;-0.674;2022-09-19T00:20:41;13.20;81.80
35692;DHT22;26978;44.830;-0.674;2022-09-19T00:23:06;13.10;82.70
35692;DHT22;26978;44.830;-0.674;2022-09-19T00:26:01;13.20;83.10
35692;DHT22;26978;44.830;-0.674;2022-09-19T00:28:27;13.20;82.80
35692;DHT22;26978;44.830;-0.674;2022-09-19T00:30:54;13.20;83.30
35692;DHT22;26978;44.830;-0.674;2022-09-19T00:33:19;13.10;83.00
35692;DHT22;26978;44.830;-0.674;2022-09-19T00:35:46;13.00;83.60
35692;DHT22;26978;44.830;-0.674;2022-09-19T00:38:14;12.90;83.90
35692;DHT22;26978;44.830;-0.674;2022-09-19T00:40:40;12.90;84.40
35692;DHT22;26978;44.830;-0.674;2022-09-19T00:43:08;12.90;84.30
35692;DHT22;26978;44.830;-0.674;2022-09-19T00:45:34;12.80;84.70
35692;DHT22;26978;44.830;-0.674;2022-09-19T00:48:01;12.70;85.30
35692;DHT22;26978;44.830;-0.674;2022-09-19T00:50:27;12.70;86.00
35692;DHT22;26978;44.830;-0.674;2022-09-19T00:53:15;12.60;86.10
35692;DHT22;26978;44.830;-0.674;2022-09-19T00:55:39;12.60;86.60
35692;DHT22;26978;44.830;-0.674;2022-09-19T00:58:14;12.60;87.10
35692;DHT22;26978;44.830;-0.674;2022-09-19T01:00:41;12.60;86.90
35692;DHT22;26978;44.830;-0.674;2022-09-19T01:03:06;12.60;87.20
35692;DHT22;26978;44.830;-0.674;2022-09-19T01:16:32;12.70;87.80
35692;DHT22;26978;44.830;-0.674;2022-09-19T01:24:42;12.60;88.30
35692;DHT22;26978;44.830;-0.674;2022-09-19T01:27:30;12.60;88.00
35692;DHT22;26978;44.830;-0.674;2022-09-19T01:30:04;12.60;88.90
35692;DHT22;26978;44.830;-0.674;2022-09-19T01:32:32;12.60;88.20
35692;DHT22;26978;44.830;-0.674;2022-09-19T01:35:01;12.60;88.40
35692;DHT22;26978;44.830;-0.674;2022-09-19T01:37:30;12.50;88.90
35692;DHT22;26978;44.830;-0.674;2022-09-19T01:39:58;12.50;88.90
35692;DHT22;26978;44.830;-0.674;2022-09-19T01:42:26;12.50;88.90
35692;DHT22;26978;44.830;-0.674;2022-09-19T01:44:51;12.50;89.00
35692;DHT22;26978;44.830;-0.674;2022-09-19T01:49:56;12.50;88.50
35692;DHT22;26978;44.830;-0.674;2022-09-19T02:05:12;12.20;90.60
35692;DHT22;26978;44.830;-0.674;2022-09-19T02:10:25;12.30;90.30
35692;DHT22;26978;44.830;-0.674;2022-09-19T02:12:52;12.30;90.10
35692;DHT22;26978;44.830;-0.674;2022-09-19T02:15:19;12.30;90.30
35692;DHT22;26978;44.830;-0.674;2022-09-19T02:17:50;12.20;90.20
35692;DHT22;26978;44.830;-0.674;2022-09-19T02:20:24;12.10;90.40
35692;DHT22;26978;44.830;-0.674;2022-09-19T02:22:53;12.10;90.50
35692;DHT22;26978;44.830;-0.674;2022-09-19T02:25:21;12.10;90.60
35692;DHT22;26978;44.830;-0.674;2022-09-19T02:27:53;12.10;90.70
35692;DHT22;26978;44.830;-0.674;2022-09-19T02:30:20;12.00;90.70
35692;DHT22;26978;44.830;-0.674;2022-09-19T02:32:46;11.90;91.00
35692;DHT22;26978;44.830;-0.674;2022-09-19T02:35:14;11.90;90.90
35692;DHT22;26978;44.830;-0.674;2022-09-19T02:37:59;11.90;91.10
35692;DHT22;26978;44.830;-0.674;2022-09-19T02:42:55;11.80;91.50
35692;DHT22;26978;44.830;-0.674;2022-09-19T02:45:26;11.80;91.30
35692;DHT22;26978;44.830;-0.674;2022-09-19T02:53:11;11.80;91.60
35692;DHT22;26978;44.830;-0.674;2022-09-19T02:55:39;11.90;91.50
35692;DHT22;26978;44.830;-0.674;2022-09-19T02:58:09;11.80;91.50
35692;DHT22;26978;44.830;-0.674;2022-09-19T03:00:36;11.70;91.60
35692;DHT22;26978;44.830;-0.674;2022-09-19T03:03:08;11.70;91.60
35692;DHT22;26978;44.830;-0.674;2022-09-19T03:05:55;11.70;91.50
35692;DHT22;26978;44.830;-0.674;2022-09-19T03:08:22;11.60;91.90
35692;DHT22;26978;44.830;-0.674;2022-09-19T03:10:49;11.40;92.10
35692;DHT22;26978;44.830;-0.674;2022-09-19T03:13:16;11.30;92.40
35692;DHT22;26978;44.830;-0.674;2022-09-19T03:15:57;11.10;93.00
35692;DHT22;26978;44.830;-0.674;2022-09-19T03:18:27;11.10;92.90
35692;DHT22;26978;44.830;-0.674;2022-09-19T03:20:54;11.00;93.30
35692;DHT22;26978;44.830;-0.674;2022-09-19T03:23:25;11.00;93.60
35692;DHT22;26978;44.830;-0.674;2022-09-19T03:25:53;10.90;93.80
35692;DHT22;26978;44.830;-0.674;2022-09-19T03:28:19;10.80;94.50
35692;DHT22;26978;44.830;-0.674;2022-09-19T03:30:47;10.90;93.90
35692;DHT22;26978;44.830;-0.674;2022-09-19T03:33:12;10.80;94.40
35692;DHT22;26978;44.830;-0.674;2022-09-19T03:35:44;10.70;94.60
35692;DHT22;26978;44.830;-0.674;2022-09-19T03:38:10;10.60;94.20
35692;DHT22;26978;44.830;-0.674;2022-09-19T03:40:36;10.50;94.80
35692;DHT22;26978;44.830;-0.674;2022-09-19T03:43:02;10.50;94.90
35692;DHT22;26978;44.830;-0.674;2022-09-19T03:45:28;10.40;94.90
35692;DHT22;26978;44.830;-0.674;2022-09-19T03:47:53;10.30;95.10
35692;DHT22;26978;44.830;-0.674;2022-09-19T03:50:19;10.20;95.50
35692;DHT22;26978;44.830;-0.674;2022-09-19T03:52:44;10.20;96.20
35692;DHT22;26978;44.830;-0.674;2022-09-19T03:55:16;10.00;96.40
35692;DHT22;26978;44.830;-0.674;2022-09-19T03:57:41;10.00;97.00
35692;DHT22;26978;44.830;-0.674;2022-09-19T04:00:07;10.10;97.10
35692;DHT22;26978;44.830;-0.674;2022-09-19T04:02:33;10.20;97.30
35692;DHT22;26978;44.830;-0.674;2022-09-19T04:04:58;10.20;97.40
35692;DHT22;26978;44.830;-0.674;2022-09-19T04:07:24;10.20;97.30
35692;DHT22;26978;44.830;-0.674;2022-09-19T04:09:52;10.10;97.40
35692;DHT22;26978;44.830;-0.674;2022-09-19T04:12:21;10.10;97.80
35692;DHT22;26978;44.830;-0.674;2022-09-19T04:14:46;10.00;97.90
35692;DHT22;26978;44.830;-0.674;2022-09-19T04:17:12;10.00;98.20
35692;DHT22;26978;44.830;-0.674;2022-09-19T04:19:39;10.10;98.20
35692;DHT22;26978;44.830;-0.674;2022-09-19T04:22:05;10.40;98.10
35692;DHT22;26978;44.830;-0.674;2022-09-19T04:24:30;10.60;97.20
35692;DHT22;26978;44.830;-0.674;2022-09-19T04:26:56;10.60;97.30
35692;DHT22;26978;44.830;-0.674;2022-09-19T04:29:26;10.50;97.00
35692;DHT22;26978;44.830;-0.674;2022-09-19T04:31:53;10.60;97.10
35692;DHT22;26978;44.830;-0.674;2022-09-19T04:34:18;10.60;96.80
35692;DHT22;26978;44.830;-0.674;2022-09-19T04:36:45;10.50;96.70
35692;DHT22;26978;44.830;-0.674;2022-09-19T04:39:13;10.50;96.90
35692;DHT22;26978;44.830;-0.674;2022-09-19T04:41:39;10.50;97.10
35692;DHT22;26978;44.830;-0.674;2022-09-19T04:44:05;10.50;96.70
35692;DHT22;26978;44.830;-0.674;2022-09-19T04:46:32;10.40;97.20
35692;DHT22;26978;44.830;-0.674;2022-09-19T04:48:58;10.40;97.70
35692;DHT22;26978;44.830;-0.674;2022-09-19T04:51:24;10.50;97.60
35692;DHT22;26978;44.830;-0.674;2022-09-19T04:53:51;10.50;97.50
35692;DHT22;26978;44.830;-0.674;2022-09-19T04:56:17;10.60;97.30
35692;DHT22;26978;44.830;-0.674;2022-09-19T04:58:44;10.70;96.80
35692;DHT22;26978;44.830;-0.674;2022-09-19T05:01:10;10.70;96.60
35692;DHT22;26978;44.830;-0.674;2022-09-19T05:03:36;10.80;96.50
35692;DHT22;26978;44.830;-0.674;2022-09-19T05:06:02;10.80;96.60
35692;DHT22;26978;44.830;-0.674;2022-09-19T05:08:28;10.70;96.70
35692;DHT22;26978;44.830;-0.674;2022-09-19T05:10:58;10.70;96.80
35692;DHT22;26978;44.830;-0.674;2022-09-19T05:13:28;10.60;96.80
35692;DHT22;26978;44.830;-0.674;2022-09-19T05:15:54;10.70;96.40
35692;DHT22;26978;44.830;-0.674;2022-09-19T05:18:20;10.80;96.40
35692;DHT22;26978;44.830;-0.674;2022-09-19T05:20:47;10.80;96.00
35692;DHT22;26978;44.830;-0.674;2022-09-19T05:23:13;10.80;95.90
35692;DHT22;26978;44.830;-0.674;2022-09-19T05:25:39;10.90;95.70
35692;DHT22;26978;44.830;-0.674;2022-09-19T05:28:05;10.90;95.90
35692;DHT22;26978;44.830;-0.674;2022-09-19T05:30:32;10.80;96.20
35692;DHT22;26978;44.830;-0.674;2022-09-19T05:32:58;10.70;96.40
35692;DHT22;26978;44.830;-0.674;2022-09-19T05:35:25;10.70;96.50
35692;DHT22;26978;44.830;-0.674;2022-09-19T05:37:51;10.60;96.50
35692;DHT22;26978;44.830;-0.674;2022-09-19T05:40:17;10.60;96.90
35692;DHT22;26978;44.830;-0.674;2022-09-19T05:42:44;10.60;97.20
35692;DHT22;26978;44.830;-0.674;2022-09-19T05:45:12;10.50;97.20
35692;DHT22;26978;44.830;-0.674;2022-09-19T05:47:38;10.60;97.30
35692;DHT22;26978;44.830;-0.674;2022-09-19T05:50:08;10.50;97.50
35692;DHT22;26978;44.830;-0.674;2022-09-19T05:52:38;10.50;97.50
35692;DHT22;26978;44.830;-0.674;2022-09-19T05:55:27;10.50;97.50
35692;DHT22;26978;44.830;-0.674;2022-09-19T05:57:54;10.50;97.80
35692;DHT22;26978;44.830;-0.674;2022-09-19T06:00:21;10.50;97.60
35692;DHT22;26978;44.830;-0.674;2022-09-19T06:02:54;10.50;97.60
35692;DHT22;26978;44.830;-0.674;2022-09-19T06:05:20;10.50;97.60
35692;DHT22;26978;44.830;-0.674;2022-09-19T06:07:46;10.50;97.70
35692;DHT22;26978;44.830;-0.674;2022-09-19T06:10:12;10.50;97.60
35692;DHT22;26978;44.830;-0.674;2022-09-19T06:12:38;10.40;97.80
35692;DHT22;26978;44.830;-0.674;2022-09-19T06:15:04;10.40;98.00
35692;DHT22;26978;44.830;-0.674;2022-09-19T06:17:30;10.50;98.00
35692;DHT22;26978;44.830;-0.674;2022-09-19T06:19:55;10.60;98.00
35692;DHT22;26978;44.830;-0.674;2022-09-19T06:22:21;10.60;97.60
35692;DHT22;26978;44.830;-0.674;2022-09-19T06:24:47;10.60;97.50
35692;DHT22;26978;44.830;-0.674;2022-09-19T06:27:12;10.60;97.60
35692;DHT22;26978;44.830;-0.674;2022-09-19T06:29:38;10.60;97.60
35692;DHT22;26978;44.830;-0.674;2022-09-19T06:32:03;10.70;97.50
35692;DHT22;26978;44.830;-0.674;2022-09-19T06:34:30;10.90;97.40
35692;DHT22;26978;44.830;-0.674;2022-09-19T06:36:56;10.80;97.00
35692;DHT22;26978;44.830;-0.674;2022-09-19T06:39:21;11.00;96.60
35692;DHT22;26978;44.830;-0.674;2022-09-19T06:41:47;11.10;96.40
35692;DHT22;26978;44.830;-0.674;2022-09-19T06:44:13;11.20;96.40
35692;DHT22;26978;44.830;-0.674;2022-09-19T06:46:39;11.20;96.00
35692;DHT22;26978;44.830;-0.674;2022-09-19T06:49:05;11.40;95.40
35692;DHT22;26978;44.830;-0.674;2022-09-19T06:51:35;11.50;95.20
35692;DHT22;26978;44.830;-0.674;2022-09-19T06:54:00;11.60;94.90
35692;DHT22;26978;44.830;-0.674;2022-09-19T06:56:26;11.70;94.70
35692;DHT22;26978;44.830;-0.674;2022-09-19T06:58:51;11.80;94.40
35692;DHT22;26978;44.830;-0.674;2022-09-19T07:01:17;11.90;94.20
35692;DHT22;26978;44.830;-0.674;2022-09-19T07:03:43;12.00;93.90
35692;DHT22;26978;44.830;-0.674;2022-09-19T07:06:08;12.10;93.80
35692;DHT22;26978;44.830;-0.674;2022-09-19T07:08:34;12.20;93.40
35692;DHT22;26978;44.830;-0.674;2022-09-19T07:10:59;12.30;92.90
35692;DHT22;26978;44.830;-0.674;2022-09-19T07:13:25;12.40;92.50
35692;DHT22;26978;44.830;-0.674;2022-09-19T07:15:51;12.50;92.20
35692;DHT22;26978;44.830;-0.674;2022-09-19T07:18:17;12.60;92.00
35692;DHT22;26978;44.830;-0.674;2022-09-19T07:20:43;12.70;92.00
35692;DHT22;26978;44.830;-0.674;2022-09-19T07:25:41;12.80;91.50
35692;DHT22;26978;44.830;-0.674;2022-09-19T07:28:12;13.00;90.80
35692;DHT22;26978;44.830;-0.674;2022-09-19T07:30:38;13.00;90.70
35692;DHT22;26978;44.830;-0.674;2022-09-19T07:33:05;13.10;90.50
35692;DHT22;26978;44.830;-0.674;2022-09-19T07:35:32;13.30;90.00
35692;DHT22;26978;44.830;-0.674;2022-09-19T07:37:58;13.30;90.20
35692;DHT22;26978;44.830;-0.674;2022-09-19T07:40:24;13.50;89.70
35692;DHT22;26978;44.830;-0.674;2022-09-19T07:42:49;13.50;89.30
35692;DHT22;26978;44.830;-0.674;2022-09-19T07:45:18;13.50;88.50
35692;DHT22;26978;44.830;-0.674;2022-09-19T07:47:44;13.60;88.40
35692;DHT22;26978;44.830;-0.674;2022-09-19T07:50:14;13.80;88.10
35692;DHT22;26978;44.830;-0.674;2022-09-19T07:52:41;13.80;87.50
35692;DHT22;26978;44.830;-0.674;2022-09-19T07:55:07;13.90;87.40
35692;DHT22;26978;44.830;-0.674;2022-09-19T07:57:35;14.10;87.30
35692;DHT22;26978;44.830;-0.674;2022-09-19T08:00:00;14.10;86.70
35692;DHT22;26978;44.830;-0.674;2022-09-19T08:02:26;14.20;86.00
35692;DHT22;26978;44.830;-0.674;2022-09-19T08:04:51;14.20;85.80
35692;DHT22;26978;44.830;-0.674;2022-09-19T08:07:17;14.30;86.00
35692;DHT22;26978;44.830;-0.674;2022-09-19T08:09:43;14.30;85.30
35692;DHT22;26978;44.830;-0.674;2022-09-19T08:12:08;14.40;85.50
35692;DHT22;26978;44.830;-0.674;2022-09-19T08:14:37;14.50;85.30
35692;DHT22;26978;44.830;-0.674;2022-09-19T08:17:02;14.50;85.00
35692;DHT22;26978;44.830;-0.674;2022-09-19T08:19:28;14.70;85.40
35692;DHT22;26978;44.830;-0.674;2022-09-19T08:21:54;14.90;84.10
35692;DHT22;26978;44.830;-0.674;2022-09-19T08:24:19;15.00;83.50
35692;DHT22;26978;44.830;-0.674;2022-09-19T08:26:45;15.10;82.80
35692;DHT22;26978;44.830;-0.674;2022-09-19T08:29:10;15.10;82.60
35692;DHT22;26978;44.830;-0.674;2022-09-19T08:31:36;15.20;82.60
35692;DHT22;26978;44.830;-0.674;2022-09-19T08:34:02;15.20;82.10
35692;DHT22;26978;44.830;-0.674;2022-09-19T08:36:28;15.20;82.00
35692;DHT22;26978;44.830;-0.674;2022-09-19T08:38:53;15.40;82.20
35692;DHT22;26978;44.830;-0.674;2022-09-19T08:46:32;15.90;80.00
35692;DHT22;26978;44.830;-0.674;2022-09-19T08:49:05;15.90;79.90
35692;DHT22;26978;44.830;-0.674;2022-09-19T08:51:42;16.10;78.70
35692;DHT22;26978;44.830;-0.674;2022-09-19T08:56:56;16.40;77.50
35692;DHT22;26978;44.830;-0.674;2022-09-19T08:59:23;16.40;77.00
35692;DHT22;26978;44.830;-0.674;2022-09-19T09:01:50;16.60;76.80
35692;DHT22;26978;44.830;-0.674;2022-09-19T09:04:24;16.80;75.30
35692;DHT22;26978;44.830;-0.674;2022-09-19T09:22:30;17.20;74.10
35692;DHT22;26978;44.830;-0.674;2022-09-19T09:24:57;17.40;73.10
35692;DHT22;26978;44.830;-0.674;2022-09-19T09:27:28;17.50;73.30
35692;DHT22;26978;44.830;-0.674;2022-09-19T09:29:55;17.70;72.30
35692;DHT22;26978;44.830;-0.674;2022-09-19T09:32:25;17.90;70.70
35692;DHT22;26978;44.830;-0.674;2022-09-19T09:35:05;18.10;69.70
35692;DHT22;26978;44.830;-0.674;2022-09-19T09:37:45;18.10;68.50
35692;DHT22;26978;44.830;-0.674;2022-09-19T09:40:14;18.20;69.50
35692;DHT22;26978;44.830;-0.674;2022-09-19T09:43:04;18.50;68.10
35692;DHT22;26978;44.830;-0.674;2022-09-19T09:45:51;18.60;66.60
35692;DHT22;26978;44.830;-0.674;2022-09-19T09:56:06;19.30;63.50
35692;DHT22;26978;44.830;-0.674;2022-09-19T10:06:46;19.40;60.80
35692;DHT22;26978;44.830;-0.674;2022-09-19T10:09:14;19.40;59.70
35692;DHT22;26978;44.830;-0.674;2022-09-19T10:11:49;19.60;59.40
35692;DHT22;26978;44.830;-0.674;2022-09-19T10:14:21;19.80;58.90
35692;DHT22;26978;44.830;-0.674;2022-09-19T10:16:49;19.80;59.00
35692;DHT22;26978;44.830;-0.674;2022-09-19T10:19:39;19.80;58.50
35692;DHT22;26978;44.830;-0.674;2022-09-19T10:22:09;19.90;58.50
35692;DHT22;26978;44.830;-0.674;2022-09-19T10:27:10;20.00;57.50
35692;DHT22;26978;44.830;-0.674;2022-09-19T10:29:41;20.40;56.50
35692;DHT22;26978;44.830;-0.674;2022-09-19T10:32:12;20.60;56.30
35692;DHT22;26978;44.830;-0.674;2022-09-19T10:34:38;20.60;54.60
35692;DHT22;26978;44.830;-0.674;2022-09-19T10:37:09;20.70;54.60
35692;DHT22;26978;44.830;-0.674;2022-09-19T10:39:43;20.80;52.00
35692;DHT22;26978;44.830;-0.674;2022-09-19T10:42:18;20.70;52.40
35692;DHT22;26978;44.830;-0.674;2022-09-19T10:44:49;20.60;51.90
35692;DHT22;26978;44.830;-0.674;2022-09-19T10:47:17;20.80;52.00
35692;DHT22;26978;44.830;-0.674;2022-09-19T10:49:46;20.80;51.90
35692;DHT22;26978;44.830;-0.674;2022-09-19T10:52:19;20.90;50.80
35692;DHT22;26978;44.830;-0.674;2022-09-19T10:54:45;21.10;51.60
35692;DHT22;26978;44.830;-0.674;2022-09-19T11:00:03;21.30;48.00
35692;DHT22;26978;44.830;-0.674;2022-09-19T11:02:30;21.50;47.60
35692;DHT22;26978;44.830;-0.674;2022-09-19T11:04:56;21.60;48.30
35692;DHT22;26978;44.830;-0.674;2022-09-19T11:07:32;21.80;48.10
35692;DHT22;26978;44.830;-0.674;2022-09-19T11:09:59;21.80;45.80
35692;DHT22;26978;44.830;-0.674;2022-09-19T11:12:27;22.10;43.70
35692;DHT22;26978;44.830;-0.674;2022-09-19T11:14:55;22.20;44.20
35692;DHT22;26978;44.830;-0.674;2022-09-19T11:33:50;22.40;37.80
35692;DHT22;26978;44.830;-0.674;2022-09-19T11:54:18;22.90;40.80
35692;DHT22;26978;44.830;-0.674;2022-09-19T12:12:15;23.40;36.00
35692;DHT22;26978;44.830;-0.674;2022-09-19T12:14:50;23.50;36.00
35692;DHT22;26978;44.830;-0.674;2022-09-19T12:17:28;23.70;34.80
35692;DHT22;26978;44.830;-0.674;2022-09-19T12:22:29;23.80;34.70
35692;DHT22;26978;44.830;-0.674;2022-09-19T12:25:13;23.90;35.40
35692;DHT22;26978;44.830;-0.674;2022-09-19T12:27:44;24.00;35.50
35692;DHT22;26978;44.830;-0.674;2022-09-19T12:30:13;24.20;35.60
35692;DHT22;26978;44.830;-0.674;2022-09-19T12:32:44;24.30;34.30
35692;DHT22;26978;44.830;-0.674;2022-09-19T12:35:18;24.40;34.30
35692;DHT22;26978;44.830;-0.674;2022-09-19T12:40:30;24.20;32.20
35692;DHT22;26978;44.830;-0.674;2022-09-19T12:43:08;24.40;32.40
35692;DHT22;26978;44.830;-0.674;2022-09-19T12:45:39;24.50;31.30
35692;DHT22;26978;44.830;-0.674;2022-09-19T12:51:03;24.90;32.30
35692;DHT22;26978;44.830;-0.674;2022-09-19T12:56:09;24.80;34.10
35692;DHT22;26978;44.830;-0.674;2022-09-19T13:03:54;25.60;31.40
35692;DHT22;26978;44.830;-0.674;2022-09-19T13:06:21;25.70;31.60
35692;DHT22;26978;44.830;-0.674;2022-09-19T13:11:41;26.00;31.20
35692;DHT22;26978;44.830;-0.674;2022-09-19T13:14:13;26.20;32.60
35692;DHT22;26978;44.830;-0.674;2022-09-19T13:16:41;26.70;33.30
35692;DHT22;26978;44.830;-0.674;2022-09-19T13:19:36;26.80;32.30
35692;DHT22;26978;44.830;-0.674;2022-09-19T13:22:21;26.70;31.70
35692;DHT22;26978;44.830;-0.674;2022-09-19T13:25:05;26.80;30.60
35692;DHT22;26978;44.830;-0.674;2022-09-19T13:27:37;26.70;31.60
35692;DHT22;26978;44.830;-0.674;2022-09-19T13:30:02;27.40;30.00
35692;DHT22;26978;44.830;-0.674;2022-09-19T13:32:30;27.50;29.10
35692;DHT22;26978;44.830;-0.674;2022-09-19T13:40:00;29.00;26.80
35692;DHT22;26978;44.830;-0.674;2022-09-19T13:50:47;29.70;27.30
35692;DHT22;26978;44.830;-0.674;2022-09-19T13:54:13;30.30;26.90
35692;DHT22;26978;44.830;-0.674;2022-09-19T13:56:21;30.60;26.80
35692;DHT22;26978;44.830;-0.674;2022-09-19T14:01:36;30.40;26.60
35692;DHT22;26978;44.830;-0.674;2022-09-19T14:04:02;30.80;24.50
35692;DHT22;26978;44.830;-0.674;2022-09-19T14:06:59;30.80;25.10
35692;DHT22;26978;44.830;-0.674;2022-09-19T14:11:51;31.00;23.90
35692;DHT22;26978;44.830;-0.674;2022-09-19T14:19:50;31.50;24.90
35692;DHT22;26978;44.830;-0.674;2022-09-19T14:22:35;32.00;24.20
35692;DHT22;26978;44.830;-0.674;2022-09-19T14:25:15;32.20;23.70
35692;DHT22;26978;44.830;-0.674;2022-09-19T14:30:20;32.00;24.00
35692;DHT22;26978;44.830;-0.674;2022-09-19T14:35:31;32.10;23.70
35692;DHT22;26978;44.830;-0.674;2022-09-19T14:40:58;32.00;24.30
35692;DHT22;26978;44.830;-0.674;2022-09-19T14:51:47;32.10;22.70
35692;DHT22;26978;44.830;-0.674;2022-09-19T14:54:18;33.10;22.40
35692;DHT22;26978;44.830;-0.674;2022-09-19T14:57:04;32.60;22.10
35692;DHT22;26978;44.830;-0.674;2022-09-19T14:59:30;32.70;21.70
35692;DHT22;26978;44.830;-0.674;2022-09-19T15:04:38;32.20;21.60
35692;DHT22;26978;44.830;-0.674;2022-09-19T15:07:04;32.50;21.70
35692;DHT22;26978;44.830;-0.674;2022-09-19T15:09:32;33.10;21.90
35692;DHT22;26978;44.830;-0.674;2022-09-19T15:11:58;33.10;22.00
35692;DHT22;26978;44.830;-0.674;2022-09-19T15:14:26;33.80;21.40
35692;DHT22;26978;44.830;-0.674;2022-09-19T15:17:14;33.90;21.30
35692;DHT22;26978;44.830;-0.674;2022-09-19T15:19:41;33.70;21.80
35692;DHT22;26978;44.830;-0.674;2022-09-19T15:24:48;32.90;22.00
35692;DHT22;26978;44.830;-0.674;2022-09-19T15:27:19;32.80;22.20
35692;DHT22;26978;44.830;-0.674;2022-09-19T15:29:45;33.50;22.00
35692;DHT22;26978;44.830;-0.674;2022-09-19T15:34:38;33.00;22.20
35692;DHT22;26978;44.830;-0.674;2022-09-19T15:37:04;32.60;22.30
35692;DHT22;26978;44.830;-0.674;2022-09-19T15:39:33;32.80;22.30
35692;DHT22;26978;44.830;-0.674;2022-09-19T15:41:59;32.40;22.50
35692;DHT22;26978;44.830;-0.674;2022-09-19T15:44:25;32.60;21.80
35692;DHT22;26978;44.830;-0.674;2022-09-19T15:46:51;32.20;21.80
35692;DHT22;26978;44.830;-0.674;2022-09-19T15:51:55;32.40;21.50
35692;DHT22;26978;44.830;-0.674;2022-09-19T15:54:21;32.50;21.40
35692;DHT22;26978;44.830;-0.674;2022-09-19T15:56:56;32.20;21.30
35692;DHT22;26978;44.830;-0.674;2022-09-19T15:59:42;32.80;21.40
35692;DHT22;26978;44.830;-0.674;2022-09-19T16:02:13;32.50;20.40
35692;DHT22;26978;44.830;-0.674;2022-09-19T16:04:44;32.30;20.70
35692;DHT22;26978;44.830;-0.674;2022-09-19T16:07:30;32.30;20.70
35692;DHT22;26978;44.830;-0.674;2022-09-19T16:10:17;32.30;20.90
35692;DHT22;26978;44.830;-0.674;2022-09-19T16:12:44;32.10;20.30
35692;DHT22;26978;44.830;-0.674;2022-09-19T16:23:13;29.90;20.60
35692;DHT22;26978;44.830;-0.674;2022-09-19T16:25:44;30.20;20.90
35692;DHT22;26978;44.830;-0.674;2022-09-19T16:28:15;30.80;20.60
35692;DHT22;26978;44.830;-0.674;2022-09-19T16:33:35;30.80;20.60
35692;DHT22;26978;44.830;-0.674;2022-09-19T16:36:01;31.50;20.60
35692;DHT22;26978;44.830;-0.674;2022-09-19T16:38:27;31.80;19.90
35692;DHT22;26978;44.830;-0.674;2022-09-19T16:40:54;31.80;19.60
35692;DHT22;26978;44.830;-0.674;2022-09-19T16:46:02;31.30;20.30
35692;DHT22;26978;44.830;-0.674;2022-09-19T16:48:28;31.40;20.30
35692;DHT22;26978;44.830;-0.674;2022-09-19T16:50:53;30.20;20.70
35692;DHT22;26978;44.830;-0.674;2022-09-19T16:53:19;29.70;21.10
35692;DHT22;26978;44.830;-0.674;2022-09-19T16:55:44;29.50;21.20
35692;DHT22;26978;44.830;-0.674;2022-09-19T16:58:13;29.00;21.80
35692;DHT22;26978;44.830;-0.674;2022-09-19T17:00:40;28.00;22.30
35692;DHT22;26978;44.830;-0.674;2022-09-19T17:03:05;27.60;22.90
35692;DHT22;26978;44.830;-0.674;2022-09-19T17:05:32;26.60;23.60
35692;DHT22;26978;44.830;-0.674;2022-09-19T17:08:01;25.90;24.00
35692;DHT22;26978;44.830;-0.674;2022-09-19T17:10:27;25.50;24.80
35692;DHT22;26978;44.830;-0.674;2022-09-19T17:12:53;25.10;25.40
35692;DHT22;26978;44.830;-0.674;2022-09-19T17:17:51;24.40;26.60
35692;DHT22;26978;44.830;-0.674;2022-09-19T17:20:16;24.00;26.90
35692;DHT22;26978;44.830;-0.674;2022-09-19T17:22:42;23.80;27.30
35692;DHT22;26978;44.830;-0.674;2022-09-19T17:25:42;23.60;27.40
35692;DHT22;26978;44.830;-0.674;2022-09-19T17:27:59;23.40;27.80
35692;DHT22;26978;44.830;-0.674;2022-09-19T17:30:24;23.20;28.00
35692;DHT22;26978;44.830;-0.674;2022-09-19T17:32:50;23.20;28.30
35692;DHT22;26978;44.830;-0.674;2022-09-19T17:35:16;23.00;28.90
35692;DHT22;26978;44.830;-0.674;2022-09-19T17:37:42;22.90;29.70
35692;DHT22;26978;44.830;-0.674;2022-09-19T17:40:09;22.70;30.40
35692;DHT22;26978;44.830;-0.674;2022-09-19T17:42:35;22.70;31.30
35692;DHT22;26978;44.830;-0.674;2022-09-19T17:45:01;22.60;32.50
35692;DHT22;26978;44.830;-0.674;2022-09-19T17:47:29;22.40;33.50
35692;DHT22;26978;44.830;-0.674;2022-09-19T17:49:54;22.30;34.30
35692;DHT22;26978;44.830;-0.674;2022-09-19T17:52:20;22.20;35.50
35692;DHT22;26978;44.830;-0.674;2022-09-19T17:54:46;22.10;36.30
35692;DHT22;26978;44.830;-0.674;2022-09-19T17:57:11;22.00;36.80
35692;DHT22;26978;44.830;-0.674;2022-09-19T17:59:36;22.00;37.30
35692;DHT22;26978;44.830;-0.674;2022-09-19T18:02:02;21.80;38.00
35692;DHT22;26978;44.830;-0.674;2022-09-19T18:04:46;21.70;39.00
35692;DHT22;26978;44.830;-0.674;2022-09-19T18:07:13;21.50;40.00
35692;DHT22;26978;44.830;-0.674;2022-09-19T18:09:38;21.50;40.70
35692;DHT22;26978;44.830;-0.674;2022-09-19T18:12:04;21.30;41.30
35692;DHT22;26978;44.830;-0.674;2022-09-19T18:14:29;21.20;42.70
35692;DHT22;26978;44.830;-0.674;2022-09-19T18:16:55;21.10;42.80
35692;DHT22;26978;44.830;-0.674;2022-09-19T18:19:22;21.10;43.70
35692;DHT22;26978;44.830;-0.674;2022-09-19T18:21:48;20.90;44.10
35692;DHT22;26978;44.830;-0.674;2022-09-19T18:24:14;20.80;44.80
35692;DHT22;26978;44.830;-0.674;2022-09-19T18:26:40;20.90;45.40
35692;DHT22;26978;44.830;-0.674;2022-09-19T18:29:06;20.70;46.40
35692;DHT22;26978;44.830;-0.674;2022-09-19T18:31:33;20.70;47.10
35692;DHT22;26978;44.830;-0.674;2022-09-19T18:33:59;20.50;48.30
35692;DHT22;26978;44.830;-0.674;2022-09-19T18:36:25;20.40;48.90
35692;DHT22;26978;44.830;-0.674;2022-09-19T18:38:52;20.40;49.60
35692;DHT22;26978;44.830;-0.674;2022-09-19T18:41:18;20.30;50.20
35692;DHT22;26978;44.830;-0.674;2022-09-19T18:43:44;20.20;50.60
35692;DHT22;26978;44.830;-0.674;2022-09-19T18:46:11;20.20;51.40
35692;DHT22;26978;44.830;-0.674;2022-09-19T18:48:37;20.00;52.00
35692;DHT22;26978;44.830;-0.674;2022-09-19T18:51:08;19.90;53.00
35692;DHT22;26978;44.830;-0.674;2022-09-19T18:53:36;19.80;53.80
35692;DHT22;26978;44.830;-0.674;2022-09-19T18:56:02;19.80;54.30
35692;DHT22;26978;44.830;-0.674;2022-09-19T18:58:27;19.90;54.50
35692;DHT22;26978;44.830;-0.674;2022-09-19T19:01:26;19.80;54.70
35692;DHT22;26978;44.830;-0.674;2022-09-19T19:03:49;19.70;55.10
35692;DHT22;26978;44.830;-0.674;2022-09-19T19:06:15;19.60;56.00
35692;DHT22;26978;44.830;-0.674;2022-09-19T19:08:41;19.60;56.50
35692;DHT22;26978;44.830;-0.674;2022-09-19T19:11:08;19.50;56.90